Time;durP1;ratioP1;P1;durP2;ratioP2;P2;SDS_P1;SDS_P2;PMS_P1;PMS_P2;Temp;Humidity;BMP_temperature;BMP_pressure;BME280_temperature;BME280_humidity;BME280_pressure;Samples;Min_cycle;Max_cycle;Signal;HPM_P1;HPM_P2
2022/04/22 00:02:31;;;;;;;64.03;37.60;;;;;;;7.61;80.34;99755.77;2196159;79;20997;-82
2022/04/22 00:05:32;;;;;;;57.88;37.08;;;;;;;7.64;80.41;99748.84;2200955;79;20996;-79
2022/04/22 00:08:33;;;;;;;62.05;37.53;;;;;;;7.69;80.39;99747.06;2205451;79;20976;-80
2022/04/22 00:11:34;;;;;;;51.75;32.70;;;;;;;7.72;80.37;99748.07;2201733;79;21011;-81
2022/04/22 00:14:35;;;;;;;55.73;33.85;;;;;;;7.72;80.32;99743.61;2200032;79;21004;-79
2022/04/22 00:17:36;;;;;;;55.88;33.35;;;;;;;7.72;80.32;99733.55;2198475;78;20942;-78
2022/04/22 00:20:37;;;;;;;55.85;33.63;;;;;;;7.70;80.22;99724.45;2191119;79;21459;-79
2022/04/22 00:23:40;;;;;;;55.12;34.25;;;;;;;7.71;80.30;99726.59;2192601;79;21012;-80
2022/04/22 00:26:41;;;;;;;56.00;34.05;;;;;;;7.72;80.35;99725.13;2246078;77;20989;-81
2022/04/22 00:29:42;;;;;;;53.60;33.23;;;;;;;7.75;80.42;99727.95;2250576;77;21462;-78
2022/04/22 00:32:43;;;;;;;54.85;33.67;;;;;;;7.74;80.44;99719.66;2243739;77;21487;-81
2022/04/22 00:35:45;;;;;;;52.50;32.83;;;;;;;7.74;80.42;99715.23;2205374;79;21008;-79
2022/04/22 00:38:46;;;;;;;50.05;32.33;;;;;;;7.76;80.41;99717.70;2206772;79;20986;-80
2022/04/22 00:41:48;;;;;;;50.38;31.42;;;;;;;7.74;80.21;99717.02;2246622;77;21032;-79
2022/04/22 00:44:49;;;;;;;50.08;31.40;;;;;;;7.61;80.10;99713.02;2193395;79;21005;-81
2022/04/22 00:47:50;;;;;;;49.58;31.27;;;;;;;7.51;80.24;99720.22;2195062;79;21581;-82
2022/04/22 00:50:51;;;;;;;49.50;30.72;;;;;;;7.49;80.50;99712.11;2185349;80;20967;-80
2022/04/22 00:53:53;;;;;;;50.28;32.17;;;;;;;7.45;80.51;99700.22;2223104;79;20999;-81
2022/04/22 00:56:54;;;;;;;45.20;28.47;;;;;;;7.44;80.59;99704.68;2222167;79;21522;-80
2022/04/22 00:59:55;;;;;;;49.03;30.65;;;;;;;7.29;80.54;99699.62;2193313;79;21484;-81
2022/04/22 01:02:56;;;;;;;50.20;31.70;;;;;;;7.11;80.68;99700.51;2268104;77;20989;-81
2022/04/22 01:12:40;;;;;;;61.83;36.68;;;;;;;7.03;81.38;99690.39;2212342;79;20983;-81
2022/04/22 01:15:41;;;;;;;53.87;34.00;;;;;;;7.04;81.53;99684.12;2218469;79;20989;-80
2022/04/22 01:18:42;;;;;;;55.73;33.60;;;;;;;6.96;81.52;99684.42;2263934;77;20946;-81
2022/04/22 01:21:43;;;;;;;57.73;33.25;;;;;;;6.85;81.66;99690.44;2189665;80;21026;-80
2022/04/22 01:24:44;;;;;;;;;;;;;;;6.79;81.73;99691.05;2221933;79;20933;-82
2022/04/22 01:27:51;;;;;;;60.58;36.93;;;;;;;6.82;81.98;99690.25;2227079;79;20465;-80
2022/04/22 01:30:58;;;;;;;58.60;37.60;;;;;;;6.89;82.14;99683.86;2221281;79;20993;-80
2022/04/22 01:33:59;;;;;;;57.98;37.08;;;;;;;6.96;82.06;99680.46;2261798;77;20945;-80
2022/04/22 01:37:00;;;;;;;60.30;36.98;;;;;;;7.04;82.10;99678.38;2267001;77;21480;-80
2022/04/22 01:40:01;;;;;;;60.63;35.65;;;;;;;7.12;82.10;99676.27;2191981;79;21005;-82
2022/04/22 01:43:02;;;;;;;;;;;;;;;7.18;82.09;99679.13;2273141;77;21669;-80
2022/04/22 01:46:04;;;;;;;57.88;36.30;;;;;;;7.21;82.00;99664.80;2263514;77;20425;-80
2022/04/22 01:49:05;;;;;;;56.45;34.92;;;;;;;7.25;82.06;99677.19;2266184;77;20958;-78
2022/04/22 01:52:07;;;;;;;57.20;35.03;;;;;;;7.32;82.05;99675.55;2220035;79;21016;-81
2022/04/22 01:55:08;;;;;;;58.90;34.75;;;;;;;7.36;82.01;99675.10;2217129;79;20999;-81
2022/04/22 01:58:09;;;;;;;55.38;32.90;;;;;;;7.39;81.95;99668.68;2221550;79;21035;-79
2022/04/22 02:01:12;;;;;;;56.10;32.53;;;;;;;7.38;81.81;99653.34;2219456;79;21526;-80
2022/04/22 02:04:13;;;;;;;51.95;32.85;;;;;;;7.35;81.64;99656.80;2265327;77;20997;-81
2022/04/22 02:07:14;;;;;;;57.83;34.27;;;;;;;7.37;81.78;99648.20;2266301;77;21503;-82
2022/04/22 02:10:15;;;;;;;51.60;33.78;;;;;;;7.39;81.71;99651.52;2269809;77;20963;-80
2022/04/22 02:13:16;;;;;;;49.27;31.07;;;;;;;7.38;81.61;99649.88;2262618;77;20973;-82
2022/04/22 02:16:17;;;;;;;56.95;34.10;;;;;;;7.41;81.66;99647.75;2268876;77;21469;-80
2022/04/22 02:19:18;;;;;;;49.75;32.45;;;;;;;7.43;81.54;99647.57;2217888;79;21045;-80
2022/04/22 02:22:22;;;;;;;52.75;32.23;;;;;;;7.38;81.44;99638.00;2266303;77;21067;-79
2022/04/22 02:25:23;;;;;;;52.67;31.57;;;;;;;7.38;81.51;99640.14;2266620;77;21063;-79
2022/04/22 02:28:34;;;;;;;48.40;31.23;;;;;;;7.40;81.63;99638.66;2182741;81;20982;-80
2022/04/22 02:31:35;;;;;;;57.15;32.67;;;;;;;7.41;81.48;99638.50;2219946;79;21555;-82
2022/04/22 02:34:36;;;;;;;54.63;33.38;;;;;;;7.45;81.45;99634.23;2265209;77;20958;-80
2022/04/22 02:37:37;;;;;;;52.75;31.77;;;;;;;7.44;81.47;99636.05;2213711;79;20976;-80
2022/04/22 02:47:18;;;;;;;57.73;32.35;;;;;;;6.82;81.94;99638.00;2185495;80;21070;-80
2022/04/22 02:50:19;;;;;;;51.83;32.67;;;;;;;6.75;82.20;99637.77;2259885;77;20977;-81
2022/04/22 02:53:22;;;;;;;55.73;32.95;;;;;;;6.76;82.34;99636.81;2210667;79;21001;-77
2022/04/22 02:56:24;;;;;;;56.77;33.95;;;;;;;6.75;82.43;99628.55;2214414;78;21496;-79
2022/04/22 02:59:27;;;;;;;51.28;33.35;;;;;;;6.78;82.57;99628.23;2213303;78;20980;-82
2022/04/22 03:02:28;;;;;;;51.77;32.67;;;;;;;6.80;82.62;99629.41;2209424;78;21057;-83
2022/04/22 03:05:29;;;;;;;53.17;33.45;;;;;;;6.86;82.71;99630.11;2208838;78;21041;-81
2022/04/22 03:08:32;;;;;;;50.05;32.42;;;;;;;6.91;82.74;99633.94;2204065;78;21036;-80
2022/04/22 03:11:34;;;;;;;50.55;31.68;;;;;;;6.95;82.66;99629.17;2210522;79;20986;-80
2022/04/22 03:14:37;;;;;;;53.85;34.33;;;;;;;7.04;82.74;99630.89;2206313;79;21024;-80
2022/04/22 03:17:39;;;;;;;57.35;35.03;;;;;;;7.10;82.72;99626.31;2203782;79;21051;-82
2022/04/22 03:20:40;;;;;;;55.88;34.50;;;;;;;7.20;82.72;99628.82;2212210;79;21018;-81
2022/04/22 03:23:41;;;;;;;58.42;34.30;;;;;;;7.26;82.69;99633.97;2204763;78;21521;-81
2022/04/22 03:26:42;;;;;;;53.23;33.65;;;;;;;7.32;82.67;99632.86;2212954;79;20941;-79
2022/04/22 03:29:43;;;;;;;59.85;36.75;;;;;;;7.38;82.63;99635.36;2184500;79;20953;-80
2022/04/22 03:32:44;;;;;;;59.13;36.53;;;;;;;7.39;82.48;99631.23;2206014;79;21028;-79
2022/04/22 03:35:50;;;;;;;61.45;35.58;;;;;;;7.38;82.42;99626.95;2199205;78;21062;-82
2022/04/22 03:38:51;;;;;;;57.73;35.05;;;;;;;7.47;82.57;99630.45;2212847;79;21047;-81
2022/04/22 03:41:52;;;;;;;55.73;33.25;;;;;;;7.49;82.34;99639.05;2211113;79;20994;-81
2022/04/22 03:44:53;;;;;;;56.13;34.23;;;;;;;7.49;82.32;99644.33;2210484;79;20937;-83
2022/04/22 03:47:59;;;;;;;56.80;34.95;;;;;;;7.48;82.28;99640.01;2211156;78;21049;-79
2022/04/22 03:50:58;;;;;;;57.40;34.45;;;;;;;7.49;82.31;99634.23;2259253;77;21011;-81
2022/04/22 03:54:00;;;;;;;58.90;35.88;;;;;;;7.51;82.30;99631.77;2208294;79;20990;-81
2022/04/22 04:00:22;;;;;;;62.43;36.95;;;;;;;7.52;82.17;99628.16;2260943;77;21038;-79
2022/04/22 04:03:23;;;;;;;62.05;37.73;;;;;;;7.52;82.22;99622.06;2206202;79;21050;-79
2022/04/22 04:06:26;;;;;;;53.92;34.03;;;;;;;7.47;82.19;99629.63;2217827;78;20954;-81
2022/04/22 04:16:07;;;;;;;49.35;35.48;;;;;;;7.55;82.33;99628.34;2197650;79;28094;-79
2022/04/22 04:25:49;;;;;;;60.88;37.80;;;;;;;7.81;82.13;99620.34;2214096;79;21013;-79
2022/04/22 04:28:52;;;;;;;61.95;37.65;;;;;;;7.70;81.72;99614.03;2217847;79;21440;-79
2022/04/22 04:31:55;;;;;;;61.13;37.73;;;;;;;7.67;82.13;99611.71;2217652;78;21018;-83
2022/04/22 04:34:56;;;;;;;61.30;37.53;;;;;;;7.69;82.15;99607.92;2214317;78;21089;-83
2022/04/22 04:37:57;;;;;;;58.78;36.48;;;;;;;7.71;81.98;99605.11;2208188;79;21029;-80
2022/04/22 04:40:59;;;;;;;57.27;36.28;;;;;;;7.69;81.97;99609.25;2209198;78;21483;-82
2022/04/22 04:44:00;;;;;;;63.23;37.60;;;;;;;7.71;82.09;99614.35;2212354;79;21530;-83
2022/04/22 04:47:01;;;;;;;59.63;34.88;;;;;;;7.71;82.02;99617.81;2217117;79;21148;-81
2022/04/22 04:50:03;;;;;;;61.75;36.77;;;;;;;7.74;82.10;99621.95;2212095;79;21526;-82
2022/04/22 04:53:04;;;;;;;57.08;35.40;;;;;;;7.70;81.95;99615.34;2223855;79;21051;-83
2022/04/22 04:56:05;;;;;;;55.33;34.60;;;;;;;7.73;82.02;99615.84;2182769;80;20973;-81
2022/04/22 04:59:07;;;;;;;55.48;35.05;;;;;;;7.69;81.86;99606.61;2220867;79;21078;-80
2022/04/22 05:02:08;;;;;;;55.90;35.83;;;;;;;7.66;81.95;99600.80;2217145;79;21010;-82
2022/04/22 05:05:10;;;;;;;55.63;35.73;;;;;;;7.58;81.95;99605.58;2225615;79;21039;-79
2022/04/22 05:08:12;;;;;;;60.28;36.88;;;;;;;7.54;82.32;99600.27;2268559;77;21082;-83
2022/04/22 05:11:13;;;;;;;62.75;38.02;;;;;;;7.63;82.57;99598.02;2222506;79;20999;-81
2022/04/22 05:14:14;;;;;;;61.85;37.10;;;;;;;7.72;82.66;99603.64;2222737;79;21001;-81
2022/04/22 05:17:15;;;;;;;65.47;38.28;;;;;;;7.81;82.61;99604.48;2224306;79;21083;-81
2022/04/22 05:20:20;;;;;;;61.70;37.28;;;;;;;7.90;82.72;99598.23;2264705;77;21001;-81
2022/04/22 05:23:21;;;;;;;56.28;36.28;;;;;;;8.02;82.64;99596.91;2263545;78;21590;-79
2022/04/22 05:26:24;;;;;;;56.75;36.73;;;;;;;8.16;82.74;99599.91;2209031;79;21563;-80
2022/04/22 05:32:48;;;;;;;64.15;39.50;;;;;;;8.40;82.84;99599.14;2265746;77;21019;-79
2022/04/22 05:35:49;;;;;;;55.65;36.42;;;;;;;8.58;82.84;99597.64;2221023;79;21043;-80
2022/04/22 05:38:52;;;;;;;62.27;37.90;;;;;;;8.74;82.60;99600.28;2223325;79;20984;-79
2022/04/22 05:41:54;;;;;;;57.23;36.60;;;;;;;8.87;82.54;99600.59;2219259;79;22157;-79
2022/04/22 05:44:55;;;;;;;62.17;38.53;;;;;;;8.85;81.76;99599.92;2220393;79;20955;-80
2022/04/22 05:47:57;;;;;;;57.45;38.10;;;;;;;8.77;81.73;99597.80;2224448;79;21031;-80
2022/04/22 05:50:58;;;;;;;54.93;37.10;;;;;;;8.74;81.75;99600.28;2223740;79;21055;-80
2022/04/22 05:53:59;;;;;;;58.78;37.60;;;;;;;8.70;81.96;99595.83;2220940;79;20981;-79
2022/04/22 05:57:01;;;;;;;58.55;37.33;;;;;;;8.75;82.14;99596.63;2224672;79;21558;-80
2022/04/22 06:00:07;;;;;;;55.08;36.58;;;;;;;8.79;82.28;99592.67;2227531;79;21099;-80
2022/04/22 06:03:10;;;;;;;60.63;41.25;;;;;;;8.86;82.38;99596.78;2213736;79;21050;-80
2022/04/22 06:06:11;;;;;;;69.65;45.28;;;;;;;8.89;82.50;99584.03;2223172;79;21076;-79
2022/04/22 06:12:32;;;;;;;77.62;47.98;;;;;;;9.04;82.56;99587.30;2186975;80;21068;-80
2022/04/22 06:15:33;;;;;;;73.02;46.00;;;;;;;9.06;82.60;99593.26;2218290;79;20931;-79
2022/04/22 06:18:34;;;;;;;76.75;46.85;;;;;;;9.12;82.53;99585.48;2221051;79;20956;-80
2022/04/22 06:21:35;;;;;;;81.05;47.27;;;;;;;9.21;82.47;99598.20;2221812;79;21492;-80
2022/04/22 06:24:37;;;;;;;81.32;49.27;;;;;;;9.21;81.89;99595.55;2221090;78;20945;-79
2022/04/22 06:27:41;;;;;;;78.85;49.45;;;;;;;9.25;82.07;99596.84;2220434;79;21055;-79
2022/04/22 06:30:43;;;;;;;75.15;45.30;;;;;;;9.25;81.81;99602.14;2218320;79;20984;-78
2022/04/22 06:33:45;;;;;;;75.03;44.63;;;;;;;9.32;81.87;99595.18;2222466;78;20965;-80
2022/04/22 06:36:47;;;;;;;74.15;46.73;;;;;;;9.42;81.57;99606.38;2217206;79;20993;-80
2022/04/22 06:46:30;;;;;;;69.67;45.28;;;;;;;9.42;80.81;99610.34;2269933;77;21587;-80
2022/04/22 06:49:32;;;;;;;67.05;38.85;;;;;;;9.43;81.09;99600.09;2274533;77;21021;-80
2022/04/22 06:52:33;;;;;;;73.35;45.52;;;;;;;9.48;80.79;99605.36;2202111;79;21033;-82
2022/04/22 06:55:35;;;;;;;64.07;43.15;;;;;;;9.46;80.85;99602.05;2202520;79;21452;-82
2022/04/22 06:58:38;;;;;;;63.98;41.98;;;;;;;9.59;80.81;99604.98;2213648;79;20991;-81
2022/04/22 07:01:39;;;;;;;63.65;42.43;;;;;;;9.68;80.44;99609.23;2176647;80;20978;-81
2022/04/22 07:04:41;;;;;;;62.05;38.38;;;;;;;9.73;80.37;99600.27;2218511;79;20974;-81
2022/04/22 07:07:42;;;;;;;47.20;31.45;;;;;;;9.88;80.53;99615.77;2217607;78;20927;-81
2022/04/22 07:10:46;;;;;;;48.08;31.37;;;;;;;9.98;79.76;99598.81;2262804;77;21033;-81
2022/04/22 07:13:48;;;;;;;45.50;27.82;;;;;;;9.98;78.76;99591.69;2215735;79;21123;-80
2022/04/22 07:16:49;;;;;;;38.67;26.93;;;;;;;10.03;78.80;99600.44;2189070;79;21016;-80
2022/04/22 07:19:51;;;;;;;36.33;25.00;;;;;;;9.97;78.45;99597.17;2217367;79;21011;-81
2022/04/22 07:22:53;;;;;;;30.80;20.57;;;;;;;9.99;78.32;99595.97;2214381;79;21033;-80
2022/04/22 07:25:55;;;;;;;23.80;16.55;;;;;;;10.26;78.63;99595.96;2185625;80;20999;-80
2022/04/22 07:28:59;;;;;;;22.67;16.10;;;;;;;10.87;76.77;99597.77;2205778;79;21007;-79
2022/04/22 07:32:01;;;;;;;26.12;17.05;;;;;;;10.93;75.43;99593.09;2170461;79;21023;-81
2022/04/22 07:35:03;;;;;;;25.17;17.87;;;;;;;11.04;73.48;99593.97;2211623;78;21511;-81
2022/04/22 07:38:06;;;;;;;26.27;19.32;;;;;;;10.91;74.64;99599.89;2259259;77;20950;-82
2022/04/22 07:41:08;;;;;;;24.20;17.12;;;;;;;10.97;74.81;99600.48;2252894;77;21556;-83
2022/04/22 07:47:34;;;;;;;24.40;16.17;;;;;;;11.50;73.43;99608.37;2197432;79;21484;-82
2022/04/22 07:50:35;;;;;;;22.45;16.25;;;;;;;11.44;72.12;99599.81;2209206;78;21095;-81
2022/04/22 07:53:37;;;;;;;23.25;15.40;;;;;;;11.29;71.72;99613.59;2182338;80;21012;-83
2022/04/22 07:56:38;;;;;;;22.65;17.25;;;;;;;11.14;71.46;99625.55;2184303;80;21578;-81
2022/04/22 07:59:40;;;;;;;24.12;17.32;;;;;;;10.90;71.11;99616.02;2165363;80;20982;-81
2022/04/22 08:02:42;;;;;;;24.10;16.12;;;;;;;10.86;71.64;99614.20;2180194;80;21564;-83
2022/04/22 08:05:43;;;;;;;24.02;15.85;;;;;;;10.80;71.56;99626.05;2168311;80;21041;-81
2022/04/22 08:08:44;;;;;;;21.42;16.73;;;;;;;10.80;71.56;99626.05;2140805;80;21025;-81
2022/04/22 08:11:45;;;;;;;26.33;15.58;;;;;;;10.66;72.30;99626.34;2182046;80;21049;-80
2022/04/22 08:14:46;;;;;;;21.73;15.20;;;;;;;10.54;71.66;99623.30;2159730;80;21510;-82
2022/04/22 08:17:48;;;;;;;21.87;15.25;;;;;;;10.40;72.22;99625.41;2162311;80;20991;-80
2022/04/22 08:20:49;;;;;;;22.73;14.68;;;;;;;10.29;71.75;99627.45;2162268;80;21002;-82
2022/04/22 08:23:50;;;;;;;23.80;16.55;;;;;;;10.18;72.08;99631.81;2166441;80;21067;-82
2022/04/22 08:26:52;;;;;;;19.23;14.63;;;;;;;10.11;72.57;99624.25;2186662;80;20974;-80
2022/04/22 08:29:53;;;;;;;20.25;14.58;;;;;;;10.16;72.97;99631.66;2159426;80;21492;-82
2022/04/22 08:32:54;;;;;;;22.30;16.57;;;;;;;10.18;72.37;99626.51;2208285;79;21065;-82
2022/04/22 08:35:56;;;;;;;22.62;15.63;;;;;;;10.25;72.99;99631.95;2204659;79;21016;-80
2022/04/22 08:38:58;;;;;;;22.25;14.45;;;;;;;10.29;73.01;99630.61;2204682;79;20994;-82
2022/04/22 08:42:01;;;;;;;17.45;13.08;;;;;;;10.31;72.73;99634.73;2159112;80;21027;-81
2022/04/22 08:45:03;;;;;;;16.67;12.10;;;;;;;10.34;72.50;99628.77;2128590;81;21041;-84
2022/04/22 08:51:25;;;;;;;17.52;11.83;;;;;;;10.23;72.08;99638.73;2179417;79;21058;-79
2022/04/22 08:54:27;;;;;;;15.58;12.03;;;;;;;10.19;71.56;99649.39;2224198;79;21062;-79
2022/04/22 08:57:29;;;;;;;15.72;12.25;;;;;;;10.15;71.75;99631.34;2215200;79;20969;-80
2022/04/22 09:00:34;;;;;;;17.77;12.88;;;;;;;10.13;71.72;99631.50;2221906;79;21441;-83
2022/04/22 09:03:35;;;;;;;16.48;11.12;;;;;;;10.11;71.82;99632.20;2267907;77;20926;-81
2022/04/22 09:06:37;;;;;;;15.85;11.68;;;;;;;10.08;71.66;99630.72;2211683;79;20996;-83
2022/04/22 09:09:41;;;;;;;17.23;11.00;;;;;;;10.05;72.00;99639.50;2223692;79;21499;-83
2022/04/22 09:12:52;;;;;;;13.98;11.22;;;;;;;10.05;71.58;99630.23;2266133;77;20993;-83
2022/04/22 09:15:54;;;;;;;16.27;13.08;;;;;;;9.97;71.71;99635.61;2212887;79;20988;-81
2022/04/22 09:19:01;;;;;;;17.32;12.75;;;;;;;9.90;72.30;99628.02;2268425;77;20961;-80
2022/04/22 09:22:03;;;;;;;20.80;13.00;;;;;;;9.87;72.55;99626.03;2261647;77;21323;-82
2022/04/22 09:25:07;;;;;;;17.77;12.68;;;;;;;9.86;72.51;99627.55;2266875;77;21101;-80
2022/04/22 09:28:10;;;;;;;20.60;12.73;;;;;;;9.81;72.64;99623.26;2224706;79;21027;-81
2022/04/22 09:31:11;;;;;;;16.20;12.10;;;;;;;9.75;72.81;99630.08;2180953;80;21039;-80
2022/04/22 09:34:12;;;;;;;17.48;12.95;;;;;;;9.75;73.09;99615.50;2225805;78;21045;-78
2022/04/22 09:44:14;;;;;;;15.32;10.98;;;;;;;9.75;72.49;99619.98;2220925;78;21077;-82
2022/04/22 09:47:15;;;;;;;14.60;11.17;;;;;;;9.69;72.43;99620.69;2211226;79;20988;-82
2022/04/22 09:50:18;;;;;;;15.43;10.90;;;;;;;9.69;72.47;99631.28;2226896;79;21416;-80
2022/04/22 09:53:33;;;;;;;16.07;11.80;;;;;;;9.71;72.41;99634.56;2196000;79;21044;-80
2022/04/22 09:56:35;;;;;;;16.52;12.13;;;;;;;9.72;72.65;99629.61;2211738;79;21055;-87
2022/04/22 09:59:39;;;;;;;15.58;12.35;;;;;;;9.79;72.86;99622.59;2160940;79;21562;-85
2022/04/22 10:02:40;;;;;;;14.90;12.00;;;;;;;9.90;73.19;99626.69;2208616;79;21018;-81
2022/04/22 10:05:45;;;;;;;16.55;12.88;;;;;;;9.99;72.52;99617.17;2256449;77;20997;-85
2022/04/22 10:08:46;;;;;;;16.32;12.63;;;;;;;10.10;72.76;99610.66;2203537;79;21057;-80
2022/04/22 10:11:52;;;;;;;16.20;13.08;;;;;;;10.31;72.94;99608.22;2163157;79;21038;-85
2022/04/22 10:14:57;;;;;;;15.20;12.73;;;;;;;10.50;72.01;99604.75;2212584;79;20966;-84
2022/04/22 10:17:59;;;;;;;16.37;13.65;;;;;;;10.63;71.21;99600.99;2215717;79;21066;-83
2022/04/22 10:21:02;;;;;;;17.15;13.48;;;;;;;10.65;71.35;99607.45;2201601;79;21573;-82
2022/04/22 10:24:04;;;;;;;16.93;13.03;;;;;;;10.59;71.21;99598.86;2202620;79;21024;-86
2022/04/22 10:27:08;;;;;;;15.80;12.33;;;;;;;10.61;70.97;99595.03;2221770;79;21023;-82
2022/04/22 10:30:11;;;;;;;17.23;13.60;;;;;;;10.57;70.90;99597.73;2211599;79;21017;-84
2022/04/22 10:33:12;;;;;;;14.65;11.43;;;;;;;10.57;70.44;99590.28;2217359;79;20949;-81
2022/04/22 10:36:19;;;;;;;17.48;13.05;;;;;;;10.60;70.42;99586.77;2200373;79;21070;-86
2022/04/22 10:39:34;;;;;;;19.32;13.38;;;;;;;10.65;70.22;99585.72;2213121;79;21014;-82
2022/04/22 10:42:39;;;;;;;17.92;13.40;;;;;;;10.81;70.32;99590.54;2212102;79;20974;-84
2022/04/22 10:49:14;;;;;;;17.55;12.68;;;;;;;10.77;69.66;99585.59;2214052;79;21008;-85
2022/04/22 10:52:19;;;;;;;18.90;13.18;;;;;;;10.77;69.66;99585.59;2142938;80;21019;-86
2022/04/22 10:55:21;;;;;;;21.40;13.88;;;;;;;10.79;69.74;99585.94;2221958;79;21036;-82
2022/04/22 10:58:23;;;;;;;19.37;13.75;;;;;;;10.84;70.14;99587.05;2172246;80;21068;-85
2022/04/22 11:01:31;;;;;;;16.02;13.20;;;;;;;10.98;69.57;99590.21;2171849;80;21058;-82
2022/04/22 11:04:34;;;;;;;15.13;11.55;;;;;;;11.06;69.22;99578.66;2193446;79;21444;-85
2022/04/22 11:07:56;;;;;;;14.78;11.65;;;;;;;11.04;68.98;99580.70;2180127;80;21600;-83
2022/04/22 11:11:03;;;;;;;17.20;12.25;;;;;;;11.07;69.13;99577.67;2254611;77;21493;-84
2022/04/22 11:14:25;;;;;;;15.23;10.93;;;;;;;11.16;68.30;99595.15;2259885;77;20982;-85
2022/04/22 11:17:36;;;;;;;14.73;11.45;;;;;;;11.09;67.67;99584.11;2255356;77;20986;-82
2022/04/22 11:20:44;;;;;;;17.10;12.98;;;;;;;11.11;67.85;99592.22;2260800;77;21073;-84
2022/04/22 11:23:46;;;;;;;19.02;12.07;;;;;;;11.18;68.82;99591.00;2257553;77;20955;-84
2022/04/22 11:26:48;;;;;;;15.08;11.68;;;;;;;11.31;68.57;99592.99;2215046;79;21543;-84
2022/04/22 11:29:50;;;;;;;15.78;12.23;;;;;;;11.34;68.43;99587.31;2214220;79;21004;-82
2022/04/22 11:32:59;;;;;;;14.47;11.90;;;;;;;11.38;67.75;99583.30;2217184;79;21451;-83
2022/04/22 11:36:04;;;;;;;15.95;11.22;;;;;;;11.44;67.94;99585.20;2217727;79;21037;-83
2022/04/22 11:39:05;;;;;;;16.90;13.32;;;;;;;11.54;67.36;99596.86;2204398;79;21584;-85
2022/04/22 11:42:09;;;;;;;15.35;12.82;;;;;;;11.50;67.25;99589.77;2218644;79;21032;-82
2022/04/22 11:45:15;;;;;;;17.42;12.82;;;;;;;11.46;67.46;99580.54;2218933;79;21078;-83
2022/04/22 11:48:22;;;;;;;14.83;12.30;;;;;;;11.45;68.18;99586.84;2220768;79;21041;-88
2022/04/22 11:51:25;;;;;;;14.58;11.38;;;;;;;11.42;67.54;99587.21;2265440;77;21045;-83
2022/04/22 11:54:26;;;;;;;18.23;13.90;;;;;;;11.41;67.18;99589.56;2199007;79;21029;-85
2022/04/22 11:57:35;;;;;;;23.27;19.37;;;;;;;11.41;67.50;99587.72;2223946;79;21514;-82
2022/04/22 12:10:38;;;;;;;28.92;22.77;;;;;;;11.05;68.93;99574.37;2210010;78;21026;-82
2022/04/22 12:13:41;;;;;;;23.45;17.73;;;;;;;10.99;69.37;99591.03;2209747;78;21023;-85
2022/04/22 12:16:43;;;;;;;27.35;21.82;;;;;;;10.87;69.61;99585.35;2224478;78;21018;-84
2022/04/22 12:19:45;;;;;;;27.15;22.65;;;;;;;10.82;69.95;99590.88;2193614;79;21590;-82
2022/04/22 12:22:49;;;;;;;26.15;21.80;;;;;;;10.76;69.88;99591.10;2216615;77;21415;-85
2022/04/22 12:25:56;;;;;;;28.52;22.42;;;;;;;10.70;70.09;99593.97;2185740;79;20939;-83
2022/04/22 12:29:16;;;;;;;23.92;19.23;;;;;;;10.73;70.08;99596.27;2187007;80;21010;-82
2022/04/22 12:32:17;;;;;;;23.45;17.45;;;;;;;10.73;70.08;99596.27;2216059;79;21530;-82
2022/04/22 12:35:19;;;;;;;20.55;15.63;;;;;;;10.75;70.24;99590.25;2199563;80;20994;-83
2022/04/22 12:38:23;;;;;;;21.45;15.10;;;;;;;10.64;69.54;99588.03;2195015;80;21109;-82
2022/04/22 12:41:25;;;;;;;20.10;14.95;;;;;;;10.64;70.30;99587.22;2212841;79;20983;-85
2022/04/22 12:44:26;;;;;;;22.15;16.97;;;;;;;10.64;70.30;99587.22;2212101;78;20957;-81
2022/04/22 12:54:11;;;;;;;28.05;17.05;;;;;;;10.71;69.81;99578.37;2207331;79;21050;-85
2022/04/22 12:57:22;;;;;;;25.17;17.07;;;;;;;10.67;70.19;99582.40;2211335;78;21036;-82
2022/04/22 13:00:25;;;;;;;22.75;17.10;;;;;;;10.62;70.30;99587.92;2222114;78;21029;-82
2022/04/22 13:03:39;;;;;;;23.60;17.50;;;;;;;10.62;70.23;99579.45;2186767;79;21032;-85
2022/04/22 13:06:47;;;;;;;20.92;15.72;;;;;;;10.64;70.31;99583.23;2218640;79;21030;-83
2022/04/22 13:09:49;;;;;;;20.72;15.30;;;;;;;10.76;70.47;99574.67;2214772;78;21455;-83
2022/04/22 13:12:51;;;;;;;22.07;16.12;;;;;;;10.94;70.29;99582.78;2219800;78;21542;-81
2022/04/22 13:15:53;;;;;;;18.37;15.45;;;;;;;10.93;70.08;99575.33;2217799;79;20997;-83
2022/04/22 13:18:59;;;;;;;18.73;15.08;;;;;;;10.90;69.67;99574.37;2197128;78;20986;-82
2022/04/22 13:22:00;;;;;;;17.02;14.15;;;;;;;10.90;69.67;99574.37;2210063;79;21056;-84
2022/04/22 13:25:03;;;;;;;17.15;14.83;;;;;;;10.70;69.59;99593.12;2189238;79;21028;-82
2022/04/22 13:28:05;;;;;;;18.30;14.60;;;;;;;10.60;70.18;99583.29;2179142;79;20987;-82
2022/04/22 13:31:06;;;;;;;18.27;15.45;;;;;;;10.54;70.30;99582.18;2267876;77;20968;-84
2022/04/22 13:34:07;;;;;;;16.97;13.13;;;;;;;10.54;70.30;99582.18;2212804;79;21027;-84
2022/04/22 13:37:09;;;;;;;16.07;12.13;;;;;;;10.47;70.12;99606.43;2207319;79;20952;-81
2022/04/22 13:40:12;;;;;;;13.18;11.88;;;;;;;10.43;70.60;99587.91;2215923;78;20946;-84
2022/04/22 13:43:13;;;;;;;12.68;10.68;;;;;;;10.51;70.51;99583.87;2263518;77;21009;-83
2022/04/22 13:52:54;;;;;;;10.35;8.83;;;;;;;10.20;70.07;99594.02;2206025;78;21007;-80
2022/04/22 13:55:55;;;;;;;10.65;7.65;;;;;;;10.14;70.17;99592.59;2216930;78;20962;-81
2022/04/22 13:58:56;;;;;;;9.10;8.20;;;;;;;10.03;70.51;99595.14;2216972;78;20931;-85
2022/04/22 14:01:57;;;;;;;10.20;7.58;;;;;;;9.92;70.88;99600.34;2214511;78;21512;-82
2022/04/22 14:04:59;;;;;;;10.95;7.92;;;;;;;9.95;70.90;99601.81;2213137;78;21017;-81
2022/04/22 14:08:00;;;;;;;13.28;8.50;;;;;;;9.93;71.00;99583.42;2216004;78;20896;-85
2022/04/22 14:11:02;;;;;;;9.30;7.53;;;;;;;9.94;70.75;99593.05;2195445;79;21510;-79
2022/04/22 14:14:03;;;;;;;7.37;6.17;;;;;;;9.84;70.75;99607.83;2219183;79;20977;-83
2022/04/22 14:17:06;;;;;;;9.00;7.55;;;;;;;9.72;70.92;99603.11;2218923;78;21188;-83
2022/04/22 14:20:08;;;;;;;7.75;6.65;;;;;;;9.69;71.10;99591.03;2228129;79;21533;-83
2022/04/22 14:23:10;;;;;;;8.73;7.20;;;;;;;9.71;71.24;99602.27;2215213;79;21480;-85
2022/04/22 14:26:12;;;;;;;10.18;7.45;;;;;;;9.74;71.28;99596.64;2209029;78;20966;-88
2022/04/22 14:29:18;;;;;;;10.15;7.65;;;;;;;9.80;71.00;99595.94;2215507;78;21060;-85
2022/04/22 14:32:19;;;;;;;8.80;6.55;;;;;;;9.84;71.34;99595.91;2189528;79;20988;-81
2022/04/22 14:35:20;;;;;;;9.73;5.65;;;;;;;9.79;70.91;99585.50;2220371;79;20973;-78
2022/04/22 14:38:23;;;;;;;6.62;5.85;;;;;;;9.78;71.24;99601.91;2229022;78;20978;-81
2022/04/22 14:41:24;;;;;;;6.83;6.12;;;;;;;9.70;70.74;99597.97;2224218;78;21065;-79
2022/04/22 14:44:26;;;;;;;8.63;6.55;;;;;;;9.66;71.01;99600.66;2217341;79;21111;-80
2022/04/22 14:47:27;;;;;;;7.75;6.97;;;;;;;9.71;70.98;99594.82;2226128;79;20948;-79
2022/04/22 14:50:30;;;;;;;10.58;6.42;;;;;;;9.85;70.95;99588.30;2224689;79;20986;-79
2022/04/22 14:53:32;;;;;;;9.68;6.40;;;;;;;9.93;70.45;99595.86;2269154;77;21465;-83
2022/04/22 14:56:34;;;;;;;7.53;6.70;;;;;;;9.96;69.84;99597.65;2250858;77;21007;-82
2022/04/22 14:59:35;;;;;;;7.12;6.20;;;;;;;9.89;69.55;99591.42;2201792;79;21587;-80
2022/04/22 15:02:36;;;;;;;8.25;5.47;;;;;;;9.83;69.05;99609.34;2205250;79;21551;-82
2022/04/22 15:05:38;;;;;;;10.80;6.50;;;;;;;9.72;69.12;99605.26;2205530;79;21037;-83
2022/04/22 15:08:39;;;;;;;7.70;5.78;;;;;;;9.66;69.36;99603.30;2207501;79;21021;-82
2022/04/22 15:11:40;;;;;;;11.57;8.03;;;;;;;9.60;69.63;99596.02;2201162;79;21479;-80
2022/04/22 15:14:41;;;;;;;9.35;6.80;;;;;;;9.58;69.71;99603.34;2205947;78;21020;-80
2022/04/22 15:24:22;;;;;;;8.93;7.07;;;;;;;9.50;70.06;99600.73;2202679;79;21552;-78
2022/04/22 15:27:24;;;;;;;8.03;6.70;;;;;;;9.48;69.75;99597.42;2201300;79;21023;-82
2022/04/22 15:31:06;;;;;;;9.28;6.95;;;;;;;9.48;69.62;99582.86;2201215;79;20982;-80
2022/04/22 15:34:06;;;;;;;9.55;7.60;;;;;;;9.50;69.64;99586.98;2201669;79;21022;-83
2022/04/22 15:37:07;;;;;;;10.50;7.92;;;;;;;9.56;69.38;99591.58;2205415;78;21457;-82
2022/04/22 15:40:10;;;;;;;10.13;7.97;;;;;;;9.57;68.93;99589.28;2211097;79;21929;-81